Time,TemperatureF,DewpointF,PressureIn,WindDirection,WindDirectionDegrees,WindSpeedMPH,WindSpeedGustMPH,Humidity,HourlyPrecipIn,Conditions,Clouds,dailyrainin,SoftwareType,DateUTC
2013-04-22 00:01:00,39.0,34.0,-100.00,NE,55,0.0,2.0,82,-99.99,,,-99.99,,2013-04-22 07:01:00,
2013-04-22 00:11:00,39.0,34.0,-100.00,NE,55,0.0,2.0,82,-99.99,,,-99.99,,2013-04-22 07:11:00,
2013-04-22 01:01:00,40.0,32.0,-100.00,NE,45,3.0,6.0,72,-99.99,,,-99.99,,2013-04-22 08:01:00,
2013-04-22 01:11:00,40.0,32.0,-100.00,NE,45,3.0,6.0,72,-99.99,,,-99.99,,2013-04-22 08:11:00,
2013-04-22 02:01:00,38.0,33.0,-100.00,ENE,65,3.0,6.0,82,-99.99,,,-99.99,,2013-04-22 09:01:00,
2013-04-22 02:11:00,38.0,33.0,-100.00,ENE,65,3.0,6.0,82,-99.99,,,-99.99,,2013-04-22 09:11:00,
2013-04-22 03:03:00,36.0,33.0,-100.00,ENE,70,3.0,5.0,88,-99.99,,,-99.99,,2013-04-22 10:03:00,
2013-04-22 03:12:00,36.0,33.0,-100.00,ENE,70,3.0,5.0,88,-99.99,,,-99.99,,2013-04-22 10:12:00,
2013-04-22 04:02:00,34.0,31.0,-100.00,SSE,150,1.0,3.0,88,-99.99,,,-99.99,,2013-04-22 11:02:00,
2013-04-22 04:12:00,34.0,31.0,-100.00,SSE,150,1.0,3.0,88,-99.99,,,-99.99,,2013-04-22 11:12:00,
2013-04-22 06:01:00,31.0,29.0,-100.00,ENE,75,0.0,1.0,92,-99.99,,,-99.99,,2013-04-22 13:01:00,
2013-04-22 06:11:00,31.0,29.0,-100.00,ENE,75,0.0,1.0,92,-99.99,,,-99.99,,2013-04-22 13:11:00,
2013-04-22 07:02:00,31.0,29.0,-100.00,SE,125,2.0,3.0,92,-99.99,,,-99.99,,2013-04-22 14:02:00,
2013-04-22 07:11:00,31.0,29.0,-100.00,SE,125,2.0,3.0,92,-99.99,,,-99.99,,2013-04-22 14:11:00,
2013-04-22 08:01:00,37.0,30.0,-100.00,ESE,115,3.0,5.0,75,-99.99,,,-99.99,,2013-04-22 15:01:00,
2013-04-22 08:11:00,37.0,30.0,-100.00,ESE,115,3.0,5.0,75,-99.99,,,-99.99,,2013-04-22 15:11:00,
2013-04-22 09:02:00,41.0,24.0,-100.00,SE,125,6.0,9.0,50,-99.99,,,-99.99,,2013-04-22 16:02:00,
2013-04-22 09:12:00,41.0,24.0,-100.00,SE,125,6.0,9.0,50,-99.99,,,-99.99,,2013-04-22 16:12:00,
2013-04-22 10:02:00,44.0,24.0,-100.00,ESE,110,5.0,9.0,44,-99.99,,,-99.99,,2013-04-22 17:02:00,
2013-04-22 10:12:00,44.0,24.0,-100.00,ESE,110,5.0,9.0,44,-99.99,,,-99.99,,2013-04-22 17:12:00,
2013-04-22 11:01:00,46.0,25.0,-100.00,East,100,3.0,8.0,43,-99.99,,,-99.99,,2013-04-22 18:01:00,
2013-04-22 11:12:00,46.0,25.0,-100.00,East,100,3.0,8.0,43,-99.99,,,-99.99,,2013-04-22 18:12:00,
2013-04-22 12:01:00,48.0,24.0,-100.00,ESE,115,3.0,9.0,38,-99.99,,,-99.99,,2013-04-22 19:01:00,
2013-04-22 12:11:00,48.0,24.0,-100.00,ESE,115,3.0,9.0,38,-99.99,,,-99.99,,2013-04-22 19:11:00,
2013-04-22 13:02:00,50.0,24.0,-100.00,East,100,6.0,12.0,35,-99.99,,,-99.99,,2013-04-22 20:02:00,
2013-04-22 13:11:00,50.0,24.0,-100.00,East,100,6.0,12.0,35,-99.99,,,-99.99,,2013-04-22 20:11:00,
2013-04-22 14:02:00,51.0,23.0,-100.00,SW,220,2.0,9.0,33,-99.99,,,-99.99,,2013-04-22 21:02:00,
2013-04-22 14:11:00,51.0,23.0,-100.00,SW,220,2.0,9.0,33,-99.99,,,-99.99,,2013-04-22 21:11:00,
2013-04-22 15:02:00,54.0,24.0,-100.00,SE,125,5.0,12.0,30,-99.99,,,-99.99,,2013-04-22 22:02:00,
2013-04-22 15:12:00,54.0,24.0,-100.00,SE,125,5.0,12.0,30,-99.99,,,-99.99,,2013-04-22 22:12:00,
2013-04-22 16:02:00,56.0,23.0,-100.00,SSE,165,3.0,7.0,27,-99.99,,,-99.99,,2013-04-22 23:02:00,
2013-04-22 16:11:00,56.0,23.0,-100.00,SSE,165,3.0,7.0,27,-99.99,,,-99.99,,2013-04-22 23:11:00,
2013-04-22 17:02:00,55.0,22.0,-100.00,ESE,105,0.0,9.0,27,-99.99,,,-99.99,,2013-04-23 00:02:00,
2013-04-22 17:12:00,55.0,22.0,-100.00,ESE,105,0.0,9.0,27,-99.99,,,-99.99,,2013-04-23 00:12:00,
2013-04-22 18:01:00,54.0,22.0,-100.00,NNW,330,2.0,5.0,28,-99.99,,,-99.99,,2013-04-23 01:01:00,
2013-04-22 18:11:00,54.0,22.0,-100.00,NNW,330,2.0,5.0,28,-99.99,,,-99.99,,2013-04-23 01:11:00,
2013-04-22 19:01:00,54.0,22.0,-100.00,NNW,335,1.0,7.0,28,-99.99,,,-99.99,,2013-04-23 02:01:00,
2013-04-22 19:12:00,54.0,22.0,-100.00,NNW,335,1.0,7.0,28,-99.99,,,-99.99,,2013-04-23 02:12:00,
2013-04-22 20:01:00,53.0,21.0,-100.00,SW,235,3.0,7.0,28,-99.99,,,-99.99,,2013-04-23 03:01:00,
2013-04-22 20:11:00,53.0,21.0,-100.00,SW,235,3.0,7.0,28,-99.99,,,-99.99,,2013-04-23 03:11:00,
2013-04-22 21:03:00,49.0,21.0,-100.00,NNE,15,0.0,3.0,32,-99.99,,,-99.99,,2013-04-23 04:03:00,
2013-04-22 21:12:00,49.0,21.0,-100.00,NNE,15,0.0,3.0,32,-99.99,,,-99.99,,2013-04-23 04:12:00,
2013-04-22 22:02:00,47.0,20.0,-100.00,SW,215,2.0,6.0,33,-99.99,,,-99.99,,2013-04-23 05:02:00,
2013-04-22 22:12:00,47.0,20.0,-100.00,SW,215,2.0,6.0,33,-99.99,,,-99.99,,2013-04-23 05:12:00,